sensor_id;sensor_type;location;lat;lon;timestamp;pressure;altitude;pressure_sealevel;temperature
4421;BMP180;11824;51.178;13.546;2022-12-07T00:01:47;100007.00;;;3.80
4421;BMP180;11824;51.178;13.546;2022-12-07T00:04:17;100004.00;;;3.80
4421;BMP180;11824;51.178;13.546;2022-12-07T00:06:50;100003.00;;;3.80
4421;BMP180;11824;51.178;13.546;2022-12-07T00:09:19;99996.00;;;3.80
4421;BMP180;11824;51.178;13.546;2022-12-07T00:11:50;100001.00;;;3.80
4421;BMP180;11824;51.178;13.546;2022-12-07T00:14:21;99991.00;;;3.80
4421;BMP180;11824;51.178;13.546;2022-12-07T00:16:50;99997.00;;;3.80
4421;BMP180;11824;51.178;13.546;2022-12-07T00:19:19;99993.00;;;3.80
4421;BMP180;11824;51.178;13.546;2022-12-07T00:21:48;99986.00;;;3.80
4421;BMP180;11824;51.178;13.546;2022-12-07T00:24:16;99988.00;;;3.80
4421;BMP180;11824;51.178;13.546;2022-12-07T00:26:45;99984.00;;;3.80
4421;BMP180;11824;51.178;13.546;2022-12-07T00:29:17;99973.00;;;3.80
4421;BMP180;11824;51.178;13.546;2022-12-07T00:31:47;99981.00;;;3.80
4421;BMP180;11824;51.178;13.546;2022-12-07T00:34:17;99971.00;;;3.80
4421;BMP180;11824;51.178;13.546;2022-12-07T00:36:47;99971.00;;;3.80
4421;BMP180;11824;51.178;13.546;2022-12-07T00:39:16;99975.00;;;3.80
4421;BMP180;11824;51.178;13.546;2022-12-07T00:41:45;99971.00;;;3.90
4421;BMP180;11824;51.178;13.546;2022-12-07T00:44:13;99973.00;;;3.90
4421;BMP180;11824;51.178;13.546;2022-12-07T00:46:42;99982.00;;;3.90
4421;BMP180;11824;51.178;13.546;2022-12-07T00:49:14;99978.00;;;3.90
4421;BMP180;11824;51.178;13.546;2022-12-07T00:51:42;99968.00;;;3.90
4421;BMP180;11824;51.178;13.546;2022-12-07T00:54:11;99970.00;;;3.90
4421;BMP180;11824;51.178;13.546;2022-12-07T00:56:40;99970.00;;;3.90
4421;BMP180;11824;51.178;13.546;2022-12-07T00:59:13;99968.00;;;3.90
4421;BMP180;11824;51.178;13.546;2022-12-07T01:01:42;99968.00;;;3.90
4421;BMP180;11824;51.178;13.546;2022-12-07T01:04:12;99966.00;;;3.90
4421;BMP180;11824;51.178;13.546;2022-12-07T01:06:41;99957.00;;;3.90
4421;BMP180;11824;51.178;13.546;2022-12-07T01:09:10;99962.00;;;3.90
4421;BMP180;11824;51.178;13.546;2022-12-07T01:11:39;99960.00;;;3.90
4421;BMP180;11824;51.178;13.546;2022-12-07T01:14:08;99961.00;;;3.90
4421;BMP180;11824;51.178;13.546;2022-12-07T01:16:38;99957.00;;;3.90
4421;BMP180;11824;51.178;13.546;2022-12-07T01:19:07;99964.00;;;3.90
4421;BMP180;11824;51.178;13.546;2022-12-07T01:21:38;99963.00;;;3.90
4421;BMP180;11824;51.178;13.546;2022-12-07T01:24:10;99960.00;;;3.90
4421;BMP180;11824;51.178;13.546;2022-12-07T01:26:39;99968.00;;;3.90
4421;BMP180;11824;51.178;13.546;2022-12-07T01:29:08;99968.00;;;3.80
4421;BMP180;11824;51.178;13.546;2022-12-07T01:31:37;99963.00;;;3.80
4421;BMP180;11824;51.178;13.546;2022-12-07T01:34:05;99967.00;;;3.80
4421;BMP180;11824;51.178;13.546;2022-12-07T01:36:36;99956.00;;;3.80
4421;BMP180;11824;51.178;13.546;2022-12-07T01:39:06;99958.00;;;3.80
4421;BMP180;11824;51.178;13.546;2022-12-07T01:41:37;99963.00;;;3.80
4421;BMP180;11824;51.178;13.546;2022-12-07T01:44:14;99949.00;;;3.80
4421;BMP180;11824;51.178;13.546;2022-12-07T01:46:44;99966.00;;;3.80
4421;BMP180;11824;51.178;13.546;2022-12-07T01:49:24;99965.00;;;3.70
4421;BMP180;11824;51.178;13.546;2022-12-07T01:52:03;99963.00;;;3.70
4421;BMP180;11824;51.178;13.546;2022-12-07T01:54:35;99955.00;;;3.70
4421;BMP180;11824;51.178;13.546;2022-12-07T01:57:07;99964.00;;;3.60
4421;BMP180;11824;51.178;13.546;2022-12-07T01:59:36;99968.00;;;3.60
4421;BMP180;11824;51.178;13.546;2022-12-07T02:02:10;99962.00;;;3.50
4421;BMP180;11824;51.178;13.546;2022-12-07T02:04:40;99963.00;;;3.40
4421;BMP180;11824;51.178;13.546;2022-12-07T02:07:11;99957.00;;;3.30
4421;BMP180;11824;51.178;13.546;2022-12-07T02:09:40;99948.00;;;3.20
4421;BMP180;11824;51.178;13.546;2022-12-07T02:12:09;99948.00;;;3.10
4421;BMP180;11824;51.178;13.546;2022-12-07T02:14:37;99946.00;;;3.00
4421;BMP180;11824;51.178;13.546;2022-12-07T02:17:14;99961.00;;;2.90
4421;BMP180;11824;51.178;13.546;2022-12-07T02:20:08;99963.00;;;2.90
4421;BMP180;11824;51.178;13.546;2022-12-07T02:26:01;99965.00;;;2.80
4421;BMP180;11824;51.178;13.546;2022-12-07T02:28:33;99955.00;;;2.80
4421;BMP180;11824;51.178;13.546;2022-12-07T02:31:06;99944.00;;;2.80
4421;BMP180;11824;51.178;13.546;2022-12-07T02:33:39;99933.00;;;2.80
4421;BMP180;11824;51.178;13.546;2022-12-07T02:36:12;99933.00;;;2.80
4421;BMP180;11824;51.178;13.546;2022-12-07T02:38:50;99927.00;;;2.80
4421;BMP180;11824;51.178;13.546;2022-12-07T02:41:24;99924.00;;;2.80
4421;BMP180;11824;51.178;13.546;2022-12-07T02:43:56;99928.00;;;2.80
4421;BMP180;11824;51.178;13.546;2022-12-07T02:46:29;99932.00;;;2.80
4421;BMP180;11824;51.178;13.546;2022-12-07T02:49:00;99915.00;;;2.70
4421;BMP180;11824;51.178;13.546;2022-12-07T02:51:30;99918.00;;;2.70
4421;BMP180;11824;51.178;13.546;2022-12-07T02:54:00;99914.00;;;2.60
4421;BMP180;11824;51.178;13.546;2022-12-07T02:56:35;99908.00;;;2.60
4421;BMP180;11824;51.178;13.546;2022-12-07T02:59:17;99910.00;;;2.50
4421;BMP180;11824;51.178;13.546;2022-12-07T03:01:57;99906.00;;;2.40
4421;BMP180;11824;51.178;13.546;2022-12-07T03:04:43;99902.00;;;2.30
4421;BMP180;11824;51.178;13.546;2022-12-07T03:07:23;99904.00;;;2.20
4421;BMP180;11824;51.178;13.546;2022-12-07T03:10:03;99889.00;;;2.10
4421;BMP180;11824;51.178;13.546;2022-12-07T03:12:44;99889.00;;;2.10
4421;BMP180;11824;51.178;13.546;2022-12-07T03:15:18;99894.00;;;2.10
4421;BMP180;11824;51.178;13.546;2022-12-07T03:17:52;99895.00;;;2.00
4421;BMP180;11824;51.178;13.546;2022-12-07T03:20:24;99894.00;;;2.00
4421;BMP180;11824;51.178;13.546;2022-12-07T03:22:57;99898.00;;;1.90
4421;BMP180;11824;51.178;13.546;2022-12-07T03:25:27;99900.00;;;1.90
4421;BMP180;11824;51.178;13.546;2022-12-07T03:27:59;99895.00;;;1.80
4421;BMP180;11824;51.178;13.546;2022-12-07T03:30:36;99894.00;;;1.80
4421;BMP180;11824;51.178;13.546;2022-12-07T03:33:15;99899.00;;;1.70
4421;BMP180;11824;51.178;13.546;2022-12-07T03:35:54;99891.00;;;1.70
4421;BMP180;11824;51.178;13.546;2022-12-07T03:38:31;99889.00;;;1.70
4421;BMP180;11824;51.178;13.546;2022-12-07T03:41:06;99882.00;;;1.70
4421;BMP180;11824;51.178;13.546;2022-12-07T03:43:45;99879.00;;;1.70
4421;BMP180;11824;51.178;13.546;2022-12-07T03:46:20;99874.00;;;1.70
4421;BMP180;11824;51.178;13.546;2022-12-07T03:49:07;99874.00;;;1.70
4421;BMP180;11824;51.178;13.546;2022-12-07T03:51:42;99881.00;;;1.70
4421;BMP180;11824;51.178;13.546;2022-12-07T03:54:15;99876.00;;;1.70
4421;BMP180;11824;51.178;13.546;2022-12-07T03:56:47;99871.00;;;1.80
4421;BMP180;11824;51.178;13.546;2022-12-07T03:59:17;99870.00;;;1.80
4421;BMP180;11824;51.178;13.546;2022-12-07T04:01:53;99867.00;;;1.80
4421;BMP180;11824;51.178;13.546;2022-12-07T04:04:25;99853.00;;;1.80
4421;BMP180;11824;51.178;13.546;2022-12-07T04:06:54;99852.00;;;1.70
4421;BMP180;11824;51.178;13.546;2022-12-07T04:09:23;99855.00;;;1.70
4421;BMP180;11824;51.178;13.546;2022-12-07T04:11:52;99852.00;;;1.70
4421;BMP180;11824;51.178;13.546;2022-12-07T04:14:21;99849.00;;;1.60
4421;BMP180;11824;51.178;13.546;2022-12-07T04:16:51;99842.00;;;1.60
4421;BMP180;11824;51.178;13.546;2022-12-07T04:19:24;99838.00;;;1.50
4421;BMP180;11824;51.178;13.546;2022-12-07T04:21:53;99835.00;;;1.50
4421;BMP180;11824;51.178;13.546;2022-12-07T04:24:22;99835.00;;;1.50
4421;BMP180;11824;51.178;13.546;2022-12-07T04:26:51;99838.00;;;1.50
4421;BMP180;11824;51.178;13.546;2022-12-07T04:29:20;99828.00;;;1.40
4421;BMP180;11824;51.178;13.546;2022-12-07T04:31:49;99821.00;;;1.40
4421;BMP180;11824;51.178;13.546;2022-12-07T04:34:19;99820.00;;;1.40
4421;BMP180;11824;51.178;13.546;2022-12-07T04:36:49;99812.00;;;1.30
4421;BMP180;11824;51.178;13.546;2022-12-07T04:39:21;99817.00;;;1.30
4421;BMP180;11824;51.178;13.546;2022-12-07T04:41:50;99811.00;;;1.30
4421;BMP180;11824;51.178;13.546;2022-12-07T04:44:20;99810.00;;;1.30
4421;BMP180;11824;51.178;13.546;2022-12-07T04:46:50;99817.00;;;1.30
4421;BMP180;11824;51.178;13.546;2022-12-07T04:49:19;99812.00;;;1.30
4421;BMP180;11824;51.178;13.546;2022-12-07T04:51:49;99807.00;;;1.40
4421;BMP180;11824;51.178;13.546;2022-12-07T04:54:18;99807.00;;;1.50
4421;BMP180;11824;51.178;13.546;2022-12-07T04:56:48;99800.00;;;1.50
4421;BMP180;11824;51.178;13.546;2022-12-07T04:59:17;99804.00;;;1.50
4421;BMP180;11824;51.178;13.546;2022-12-07T05:01:46;99796.00;;;1.60
4421;BMP180;11824;51.178;13.546;2022-12-07T05:04:15;99798.00;;;1.60
4421;BMP180;11824;51.178;13.546;2022-12-07T05:06:45;99796.00;;;1.70
4421;BMP180;11824;51.178;13.546;2022-12-07T05:09:15;99793.00;;;1.70
4421;BMP180;11824;51.178;13.546;2022-12-07T05:11:44;99783.00;;;1.80
4421;BMP180;11824;51.178;13.546;2022-12-07T05:14:17;99785.00;;;1.80
4421;BMP180;11824;51.178;13.546;2022-12-07T05:16:48;99791.00;;;1.90
4421;BMP180;11824;51.178;13.546;2022-12-07T05:19:18;99788.00;;;2.00
4421;BMP180;11824;51.178;13.546;2022-12-07T05:21:47;99785.00;;;2.10
4421;BMP180;11824;51.178;13.546;2022-12-07T05:24:18;99783.00;;;2.20
4421;BMP180;11824;51.178;13.546;2022-12-07T05:26:47;99788.00;;;2.20
4421;BMP180;11824;51.178;13.546;2022-12-07T05:29:16;99786.00;;;2.30
4421;BMP180;11824;51.178;13.546;2022-12-07T05:31:45;99778.00;;;2.40
4421;BMP180;11824;51.178;13.546;2022-12-07T05:34:14;99776.00;;;2.40
4421;BMP180;11824;51.178;13.546;2022-12-07T05:36:43;99773.00;;;2.50
4421;BMP180;11824;51.178;13.546;2022-12-07T05:39:12;99770.00;;;2.50
4421;BMP180;11824;51.178;13.546;2022-12-07T05:41:42;99761.00;;;2.60
4421;BMP180;11824;51.178;13.546;2022-12-07T05:44:28;99768.00;;;2.60
4421;BMP180;11824;51.178;13.546;2022-12-07T05:46:57;99765.00;;;2.60
4421;BMP180;11824;51.178;13.546;2022-12-07T05:49:26;99766.00;;;2.70
4421;BMP180;11824;51.178;13.546;2022-12-07T05:51:55;99762.00;;;2.70
4421;BMP180;11824;51.178;13.546;2022-12-07T05:54:24;99762.00;;;2.70
4421;BMP180;11824;51.178;13.546;2022-12-07T05:56:54;99752.00;;;2.80
4421;BMP180;11824;51.178;13.546;2022-12-07T05:59:23;99753.00;;;2.80
4421;BMP180;11824;51.178;13.546;2022-12-07T06:01:52;99751.00;;;2.80
4421;BMP180;11824;51.178;13.546;2022-12-07T06:04:22;99749.00;;;2.90
4421;BMP180;11824;51.178;13.546;2022-12-07T06:06:53;99747.00;;;2.90
4421;BMP180;11824;51.178;13.546;2022-12-07T06:09:35;99752.00;;;2.90
4421;BMP180;11824;51.178;13.546;2022-12-07T06:12:06;99746.00;;;2.90
4421;BMP180;11824;51.178;13.546;2022-12-07T06:14:52;99746.00;;;2.90
4421;BMP180;11824;51.178;13.546;2022-12-07T06:17:21;99753.00;;;2.90
4421;BMP180;11824;51.178;13.546;2022-12-07T06:19:50;99748.00;;;2.90
4421;BMP180;11824;51.178;13.546;2022-12-07T06:22:19;99746.00;;;3.00
4421;BMP180;11824;51.178;13.546;2022-12-07T06:24:48;99744.00;;;3.00
4421;BMP180;11824;51.178;13.546;2022-12-07T06:27:18;99752.00;;;3.00
4421;BMP180;11824;51.178;13.546;2022-12-07T06:29:47;99749.00;;;3.00
4421;BMP180;11824;51.178;13.546;2022-12-07T06:32:16;99745.00;;;3.10
4421;BMP180;11824;51.178;13.546;2022-12-07T06:34:45;99741.00;;;3.10
4421;BMP180;11824;51.178;13.546;2022-12-07T06:37:14;99748.00;;;3.20
4421;BMP180;11824;51.178;13.546;2022-12-07T06:39:43;99742.00;;;3.20
4421;BMP180;11824;51.178;13.546;2022-12-07T06:42:13;99744.00;;;3.20
4421;BMP180;11824;51.178;13.546;2022-12-07T06:44:43;99745.00;;;3.30
4421;BMP180;11824;51.178;13.546;2022-12-07T06:47:12;99751.00;;;3.30
4421;BMP180;11824;51.178;13.546;2022-12-07T06:50:02;99753.00;;;3.30
4421;BMP180;11824;51.178;13.546;2022-12-07T06:52:33;99757.00;;;3.30
4421;BMP180;11824;51.178;13.546;2022-12-07T06:55:02;99757.00;;;3.30
4421;BMP180;11824;51.178;13.546;2022-12-07T06:57:31;99757.00;;;3.30
4421;BMP180;11824;51.178;13.546;2022-12-07T07:00:02;99768.00;;;3.30
4421;BMP180;11824;51.178;13.546;2022-12-07T07:02:32;99760.00;;;3.30
4421;BMP180;11824;51.178;13.546;2022-12-07T07:05:01;99764.00;;;3.30
4421;BMP180;11824;51.178;13.546;2022-12-07T07:07:29;99760.00;;;3.30
4421;BMP180;11824;51.178;13.546;2022-12-07T07:10:08;99768.00;;;3.30
4421;BMP180;11824;51.178;13.546;2022-12-07T07:12:37;99766.00;;;3.30
4421;BMP180;11824;51.178;13.546;2022-12-07T07:15:08;99764.00;;;3.30
4421;BMP180;11824;51.178;13.546;2022-12-07T07:17:38;99774.00;;;3.30
4421;BMP180;11824;51.178;13.546;2022-12-07T07:20:08;99765.00;;;3.30
4421;BMP180;11824;51.178;13.546;2022-12-07T07:22:37;99774.00;;;3.30
4421;BMP180;11824;51.178;13.546;2022-12-07T07:25:06;99765.00;;;3.30
4421;BMP180;11824;51.178;13.546;2022-12-07T07:27:35;99772.00;;;3.30
4421;BMP180;11824;51.178;13.546;2022-12-07T07:30:05;99771.00;;;3.30
4421;BMP180;11824;51.178;13.546;2022-12-07T07:32:35;99767.00;;;3.30
4421;BMP180;11824;51.178;13.546;2022-12-07T07:35:05;99773.00;;;3.30
4421;BMP180;11824;51.178;13.546;2022-12-07T07:37:34;99774.00;;;3.40
4421;BMP180;11824;51.178;13.546;2022-12-07T07:40:03;99770.00;;;3.40
4421;BMP180;11824;51.178;13.546;2022-12-07T07:42:32;99762.00;;;3.40
4421;BMP180;11824;51.178;13.546;2022-12-07T07:45:01;99766.00;;;3.50
4421;BMP180;11824;51.178;13.546;2022-12-07T07:47:30;99765.00;;;3.50
4421;BMP180;11824;51.178;13.546;2022-12-07T07:50:01;99772.00;;;3.50
4421;BMP180;11824;51.178;13.546;2022-12-07T07:52:31;99766.00;;;3.60
4421;BMP180;11824;51.178;13.546;2022-12-07T07:55:00;99772.00;;;3.60
4421;BMP180;11824;51.178;13.546;2022-12-07T07:57:29;99772.00;;;3.70
4421;BMP180;11824;51.178;13.546;2022-12-07T07:59:58;99767.00;;;3.70
4421;BMP180;11824;51.178;13.546;2022-12-07T08:02:28;99770.00;;;3.70
4421;BMP180;11824;51.178;13.546;2022-12-07T08:04:56;99780.00;;;3.70
4421;BMP180;11824;51.178;13.546;2022-12-07T08:07:27;99785.00;;;3.80
4421;BMP180;11824;51.178;13.546;2022-12-07T08:09:56;99769.00;;;3.80
4421;BMP180;11824;51.178;13.546;2022-12-07T08:12:25;99770.00;;;3.80
4421;BMP180;11824;51.178;13.546;2022-12-07T08:14:53;99766.00;;;3.90
4421;BMP180;11824;51.178;13.546;2022-12-07T08:17:22;99773.00;;;3.90
4421;BMP180;11824;51.178;13.546;2022-12-07T08:19:51;99765.00;;;3.90
4421;BMP180;11824;51.178;13.546;2022-12-07T08:22:20;99767.00;;;3.90
4421;BMP180;11824;51.178;13.546;2022-12-07T08:24:50;99768.00;;;3.90
4421;BMP180;11824;51.178;13.546;2022-12-07T08:27:19;99763.00;;;4.00
4421;BMP180;11824;51.178;13.546;2022-12-07T08:29:48;99763.00;;;4.00
4421;BMP180;11824;51.178;13.546;2022-12-07T08:32:17;99767.00;;;4.10
4421;BMP180;11824;51.178;13.546;2022-12-07T08:34:45;99759.00;;;4.10
4421;BMP180;11824;51.178;13.546;2022-12-07T08:37:14;99762.00;;;4.20
4421;BMP180;11824;51.178;13.546;2022-12-07T08:39:42;99755.00;;;4.20
4421;BMP180;11824;51.178;13.546;2022-12-07T08:42:12;99757.00;;;4.30
4421;BMP180;11824;51.178;13.546;2022-12-07T08:44:41;99753.00;;;4.30
4421;BMP180;11824;51.178;13.546;2022-12-07T08:47:10;99765.00;;;4.30
4421;BMP180;11824;51.178;13.546;2022-12-07T08:49:41;99757.00;;;4.40
4421;BMP180;11824;51.178;13.546;2022-12-07T08:52:12;99754.00;;;4.40
4421;BMP180;11824;51.178;13.546;2022-12-07T08:54:41;99761.00;;;4.50
4421;BMP180;11824;51.178;13.546;2022-12-07T08:57:12;99757.00;;;4.60
4421;BMP180;11824;51.178;13.546;2022-12-07T08:59:41;99763.00;;;4.60
4421;BMP180;11824;51.178;13.546;2022-12-07T09:02:10;99764.00;;;4.70
4421;BMP180;11824;51.178;13.546;2022-12-07T09:04:39;99772.00;;;4.80
4421;BMP180;11824;51.178;13.546;2022-12-07T09:07:08;99759.00;;;4.80
4421;BMP180;11824;51.178;13.546;2022-12-07T09:09:37;99758.00;;;4.90
4421;BMP180;11824;51.178;13.546;2022-12-07T09:12:06;99782.00;;;5.00
4421;BMP180;11824;51.178;13.546;2022-12-07T09:14:36;99767.00;;;5.00
4421;BMP180;11824;51.178;13.546;2022-12-07T09:17:06;99773.00;;;5.00
4421;BMP180;11824;51.178;13.546;2022-12-07T09:19:35;99776.00;;;5.10
4421;BMP180;11824;51.178;13.546;2022-12-07T09:22:04;99778.00;;;5.10
4421;BMP180;11824;51.178;13.546;2022-12-07T09:24:33;99784.00;;;5.10
4421;BMP180;11824;51.178;13.546;2022-12-07T09:27:02;99782.00;;;5.10
4421;BMP180;11824;51.178;13.546;2022-12-07T09:29:31;99788.00;;;5.20
4421;BMP180;11824;51.178;13.546;2022-12-07T09:32:01;99787.00;;;5.30
4421;BMP180;11824;51.178;13.546;2022-12-07T09:34:37;99779.00;;;5.30
4421;BMP180;11824;51.178;13.546;2022-12-07T09:37:06;99774.00;;;5.30
4421;BMP180;11824;51.178;13.546;2022-12-07T09:39:38;99775.00;;;5.40
4421;BMP180;11824;51.178;13.546;2022-12-07T09:42:27;99784.00;;;5.40
4421;BMP180;11824;51.178;13.546;2022-12-07T09:44:57;99790.00;;;5.50
4421;BMP180;11824;51.178;13.546;2022-12-07T09:47:28;99788.00;;;5.60
4421;BMP180;11824;51.178;13.546;2022-12-07T09:50:03;99783.00;;;5.70
4421;BMP180;11824;51.178;13.546;2022-12-07T09:52:33;99776.00;;;5.80
4421;BMP180;11824;51.178;13.546;2022-12-07T09:55:10;99781.00;;;5.90
4421;BMP180;11824;51.178;13.546;2022-12-07T09:57:40;99778.00;;;6.00
4421;BMP180;11824;51.178;13.546;2022-12-07T10:00:14;99773.00;;;6.00
4421;BMP180;11824;51.178;13.546;2022-12-07T10:02:46;99751.00;;;6.10
4421;BMP180;11824;51.178;13.546;2022-12-07T10:05:16;99767.00;;;6.20
4421;BMP180;11824;51.178;13.546;2022-12-07T10:07:51;99750.00;;;6.30
4421;BMP180;11824;51.178;13.546;2022-12-07T10:10:25;99754.00;;;6.40
4421;BMP180;11824;51.178;13.546;2022-12-07T10:12:56;99761.00;;;6.50
4421;BMP180;11824;51.178;13.546;2022-12-07T10:15:45;99746.00;;;6.50
4421;BMP180;11824;51.178;13.546;2022-12-07T10:18:25;99764.00;;;6.60
4421;BMP180;11824;51.178;13.546;2022-12-07T10:21:03;99758.00;;;6.60
4421;BMP180;11824;51.178;13.546;2022-12-07T10:23:32;99758.00;;;6.60
4421;BMP180;11824;51.178;13.546;2022-12-07T10:26:21;99751.00;;;6.50
4421;BMP180;11824;51.178;13.546;2022-12-07T10:28:53;99765.00;;;6.50
4421;BMP180;11824;51.178;13.546;2022-12-07T10:31:23;99750.00;;;6.50
4421;BMP180;11824;51.178;13.546;2022-12-07T10:33:56;99742.00;;;6.50
4421;BMP180;11824;51.178;13.546;2022-12-07T10:36:27;99753.00;;;6.40
4421;BMP180;11824;51.178;13.546;2022-12-07T10:39:01;99742.00;;;6.40
4421;BMP180;11824;51.178;13.546;2022-12-07T10:41:30;99744.00;;;6.40
4421;BMP180;11824;51.178;13.546;2022-12-07T10:43:59;99752.00;;;6.40
4421;BMP180;11824;51.178;13.546;2022-12-07T10:50:02;99746.00;;;6.30
4421;BMP180;11824;51.178;13.546;2022-12-07T10:52:53;99746.00;;;6.30
4421;BMP180;11824;51.178;13.546;2022-12-07T10:55:35;99743.00;;;6.30
4421;BMP180;11824;51.178;13.546;2022-12-07T10:58:17;99740.00;;;6.30
4421;BMP180;11824;51.178;13.546;2022-12-07T11:00:56;99745.00;;;6.30
4421;BMP180;11824;51.178;13.546;2022-12-07T11:03:40;99734.00;;;6.40
4421;BMP180;11824;51.178;13.546;2022-12-07T11:06:17;99735.00;;;6.40
4421;BMP180;11824;51.178;13.546;2022-12-07T11:09:00;99732.00;;;6.40
4421;BMP180;11824;51.178;13.546;2022-12-07T11:11:35;99725.00;;;6.40
4421;BMP180;11824;51.178;13.546;2022-12-07T11:14:12;99735.00;;;6.40
4421;BMP180;11824;51.178;13.546;2022-12-07T11:16:55;99730.00;;;6.40
4421;BMP180;11824;51.178;13.546;2022-12-07T11:19:54;99726.00;;;6.40
4421;BMP180;11824;51.178;13.546;2022-12-07T11:22:36;99726.00;;;6.30
4421;BMP180;11824;51.178;13.546;2022-12-07T11:25:17;99744.00;;;6.30
4421;BMP180;11824;51.178;13.546;2022-12-07T11:28:07;99738.00;;;6.20
4421;BMP180;11824;51.178;13.546;2022-12-07T11:30:45;99735.00;;;6.10
4421;BMP180;11824;51.178;13.546;2022-12-07T11:33:19;99727.00;;;6.00
4421;BMP180;11824;51.178;13.546;2022-12-07T11:35:57;99732.00;;;6.00
4421;BMP180;11824;51.178;13.546;2022-12-07T11:38:41;99731.00;;;6.00
4421;BMP180;11824;51.178;13.546;2022-12-07T11:41:11;99726.00;;;6.00
4421;BMP180;11824;51.178;13.546;2022-12-07T11:43:56;99728.00;;;6.00
4421;BMP180;11824;51.178;13.546;2022-12-07T11:46:34;99727.00;;;6.00
4421;BMP180;11824;51.178;13.546;2022-12-07T11:49:10;99727.00;;;6.00
4421;BMP180;11824;51.178;13.546;2022-12-07T11:51:41;99731.00;;;5.90
4421;BMP180;11824;51.178;13.546;2022-12-07T11:54:17;99728.00;;;5.90
4421;BMP180;11824;51.178;13.546;2022-12-07T11:56:49;99733.00;;;6.00
4421;BMP180;11824;51.178;13.546;2022-12-07T11:59:25;99736.00;;;5.90
4421;BMP180;11824;51.178;13.546;2022-12-07T12:02:00;99726.00;;;6.00
4421;BMP180;11824;51.178;13.546;2022-12-07T12:04:39;99720.00;;;6.00
4421;BMP180;11824;51.178;13.546;2022-12-07T12:07:17;99722.00;;;6.00
4421;BMP180;11824;51.178;13.546;2022-12-07T12:10:17;99714.00;;;6.00
4421;BMP180;11824;51.178;13.546;2022-12-07T12:13:02;99710.00;;;6.10
4421;BMP180;11824;51.178;13.546;2022-12-07T12:16:08;99704.00;;;6.10
4421;BMP180;11824;51.178;13.546;2022-12-07T12:19:05;99694.00;;;6.20
4421;BMP180;11824;51.178;13.546;2022-12-07T12:21:39;99700.00;;;6.20
4421;BMP180;11824;51.178;13.546;2022-12-07T12:24:12;99695.00;;;6.20
4421;BMP180;11824;51.178;13.546;2022-12-07T12:26:51;99698.00;;;6.20
4421;BMP180;11824;51.178;13.546;2022-12-07T12:29:27;99703.00;;;6.20
4421;BMP180;11824;51.178;13.546;2022-12-07T12:32:11;99699.00;;;6.20
4421;BMP180;11824;51.178;13.546;2022-12-07T12:34:58;99703.00;;;6.20
4421;BMP180;11824;51.178;13.546;2022-12-07T12:37:44;99700.00;;;6.20
4421;BMP180;11824;51.178;13.546;2022-12-07T12:40:41;99696.00;;;6.20
4421;BMP180;11824;51.178;13.546;2022-12-07T12:43:48;99693.00;;;6.20
4421;BMP180;11824;51.178;13.546;2022-12-07T12:46:52;99688.00;;;6.20
4421;BMP180;11824;51.178;13.546;2022-12-07T12:49:35;99699.00;;;6.10
4421;BMP180;11824;51.178;13.546;2022-12-07T12:55:20;99698.00;;;6.00
4421;BMP180;11824;51.178;13.546;2022-12-07T12:58:32;99685.00;;;6.00
4421;BMP180;11824;51.178;13.546;2022-12-07T13:01:41;99701.00;;;6.00
4421;BMP180;11824;51.178;13.546;2022-12-07T13:04:40;99699.00;;;5.80
4421;BMP180;11824;51.178;13.546;2022-12-07T13:10:36;99692.00;;;5.60
4421;BMP180;11824;51.178;13.546;2022-12-07T13:13:30;99697.00;;;5.50
4421;BMP180;11824;51.178;13.546;2022-12-07T13:24:06;99679.00;;;5.30
4421;BMP180;11824;51.178;13.546;2022-12-07T13:26:45;99683.00;;;5.30
4421;BMP180;11824;51.178;13.546;2022-12-07T13:29:27;99684.00;;;5.20
4421;BMP180;11824;51.178;13.546;2022-12-07T13:32:29;99686.00;;;5.20
4421;BMP180;11824;51.178;13.546;2022-12-07T13:38:58;99679.00;;;5.10
4421;BMP180;11824;51.178;13.546;2022-12-07T13:41:46;99683.00;;;5.10
4421;BMP180;11824;51.178;13.546;2022-12-07T13:44:46;99684.00;;;5.10
4421;BMP180;11824;51.178;13.546;2022-12-07T13:47:51;99682.00;;;5.10
4421;BMP180;11824;51.178;13.546;2022-12-07T13:50:26;99678.00;;;5.10
4421;BMP180;11824;51.178;13.546;2022-12-07T13:53:01;99683.00;;;5.10
4421;BMP180;11824;51.178;13.546;2022-12-07T13:56:01;99682.00;;;5.10
4421;BMP180;11824;51.178;13.546;2022-12-07T13:58:56;99690.00;;;5.00
4421;BMP180;11824;51.178;13.546;2022-12-07T14:02:23;99687.00;;;5.00
4421;BMP180;11824;51.178;13.546;2022-12-07T14:05:13;99693.00;;;5.00
4421;BMP180;11824;51.178;13.546;2022-12-07T14:08:20;99686.00;;;5.00
4421;BMP180;11824;51.178;13.546;2022-12-07T14:10:58;99684.00;;;5.00
4421;BMP180;11824;51.178;13.546;2022-12-07T14:13:39;99682.00;;;5.00
4421;BMP180;11824;51.178;13.546;2022-12-07T14:16:54;99678.00;;;5.00
4421;BMP180;11824;51.178;13.546;2022-12-07T14:19:48;99683.00;;;5.10
4421;BMP180;11824;51.178;13.546;2022-12-07T14:22:34;99670.00;;;5.10
4421;BMP180;11824;51.178;13.546;2022-12-07T14:25:25;99677.00;;;5.10
4421;BMP180;11824;51.178;13.546;2022-12-07T14:28:28;99679.00;;;5.10
4421;BMP180;11824;51.178;13.546;2022-12-07T14:31:18;99674.00;;;5.10
4421;BMP180;11824;51.178;13.546;2022-12-07T14:34:03;99676.00;;;5.10
4421;BMP180;11824;51.178;13.546;2022-12-07T14:36:50;99679.00;;;5.10
4421;BMP180;11824;51.178;13.546;2022-12-07T14:39:43;99670.00;;;5.10
4421;BMP180;11824;51.178;13.546;2022-12-07T14:42:17;99674.00;;;5.10
4421;BMP180;11824;51.178;13.546;2022-12-07T14:44:52;99670.00;;;5.00
4421;BMP180;11824;51.178;13.546;2022-12-07T14:47:30;99671.00;;;5.00
4421;BMP180;11824;51.178;13.546;2022-12-07T14:50:42;99679.00;;;5.00
4421;BMP180;11824;51.178;13.546;2022-12-07T14:53:51;99671.00;;;5.00
4421;BMP180;11824;51.178;13.546;2022-12-07T14:56:38;99689.00;;;5.00
4421;BMP180;11824;51.178;13.546;2022-12-07T14:59:22;99691.00;;;5.00
4421;BMP180;11824;51.178;13.546;2022-12-07T15:02:01;99687.00;;;5.00
4421;BMP180;11824;51.178;13.546;2022-12-07T15:04:47;99704.00;;;4.90
4421;BMP180;11824;51.178;13.546;2022-12-07T15:07:31;99702.00;;;4.80
4421;BMP180;11824;51.178;13.546;2022-12-07T15:10:18;99703.00;;;4.70
4421;BMP180;11824;51.178;13.546;2022-12-07T15:13:02;99697.00;;;4.60
4421;BMP180;11824;51.178;13.546;2022-12-07T15:15:53;99705.00;;;4.50
4421;BMP180;11824;51.178;13.546;2022-12-07T15:18:55;99693.00;;;4.40
4421;BMP180;11824;51.178;13.546;2022-12-07T15:22:00;99693.00;;;4.40
4421;BMP180;11824;51.178;13.546;2022-12-07T15:24:46;99699.00;;;4.30
4421;BMP180;11824;51.178;13.546;2022-12-07T15:27:43;99688.00;;;4.30
4421;BMP180;11824;51.178;13.546;2022-12-07T15:30:25;99703.00;;;4.20
4421;BMP180;11824;51.178;13.546;2022-12-07T15:33:22;99691.00;;;4.20
4421;BMP180;11824;51.178;13.546;2022-12-07T15:36:23;99692.00;;;4.20